Bonaire, Bonaire

9:44 PM AST on August 03, 2015 (GMT -0400)
Den Chefi | | Change Station
CLOSE
Current Station
Personal Weather Station
Location: Caribbean Netherlands,
Elevation: 7 ft
Nearby Weather Stations

Elev 7 ft 12.15 °N, 68.27 °W | Updated 15 seconds ago

Partly Cloudy
Partly Cloudy
82.9 °F
Feels Like 94 °F
N
6.7
Wind Variable Wind from ESE
Gusts 9.8 mph

Today
High -- | Low -- °F
--% Chance of Precip.
Yesterday
High -- | Low -- °F
Precip. -- in
6:20 AM 6:58 PM
Waning Gibbous, 82% visible
Pressure 29.89 in
Visibility 6.2 miles
Clouds Few 1600 ft
Heat Index 94 °F
Dew Point 79 °F
Humidity 89%
Rainfall 0.00 in
Snow Depth Not available.
UV 0.0 out of 12
Pollen Not available.
Air Quality Not available.
Flu Activity Not available.
METAR TNCC 040100Z 10013KT 9999 FEW016 28/24 Q1012 NOSIG

More Conditions Fewer Conditions

Pressure 29.89 in
Visibility 6.2 miles
Clouds Few 1600 ft
Heat Index 94 °F
Dew Point 79 °F
Humidity 89%
Rainfall 0.00 in
Snow Depth Not available.
UV 0.0 out of 12
Pollen Not available.
Air Quality Not available.
Flu Activity Not available.
METAR TNCC 040100Z 10013KT 9999 FEW016 28/24 Q1012 NOSIG

More Conditions Fewer Conditions

10-Day Weather Forecast

×

Almanac

Astronomy

Aug. 03, 2015 Rise Set
Actual Time
Civil Twilight
Nautical Twilight
Astronomical Twilight
Moon
Length of Visible Light
Length of Day
Tomorrow will be .
, % of the Moon is Illuminated

Today's Extremes

Country Highs Country Lows

Community

WunderPhotos

Upload Photos

1,843,820 photos uploaded!

WunderBlogs® & News

Nearby

Air Quality

  Air Quality AQ Index Pollutant
Not available.

Snow Depth

Station Depth Elevation

Earthquake Activity

City Distance Mag. Time & Date
Minimum magnitude displayed is 2.5.

Coastal Water Temperatures

Place Temperature

Stations

Nearby Weather Stations

Station Location Temp. Windchill Dew Point Humidity Wind Precip. Elev Updated Type